createdAt,value
2018-05-13T00:01:52.458Z,100799.23
2018-05-13T00:04:26.815Z,100800.48
2018-05-13T00:07:01.552Z,100794.24
2018-05-13T00:09:36.906Z,100785.28
2018-05-13T00:12:11.887Z,100788.88
2018-05-13T00:14:46.967Z,100788.36
2018-05-13T00:17:21.812Z,100787.08
2018-05-13T00:19:57.002Z,100782.95
2018-05-13T00:22:31.737Z,100784.28
2018-05-13T00:25:06.769Z,100781.04
2018-05-13T00:27:41.829Z,100789.04
2018-05-13T00:30:16.694Z,100780.25
2018-05-13T00:32:52.010Z,100784.65
2018-05-13T00:35:26.869Z,100786.69
2018-05-13T00:38:02.278Z,100781.68
2018-05-13T00:40:37.494Z,100782.95
2018-05-13T00:43:12.782Z,100778.23
2018-05-13T00:45:47.910Z,100780.61
2018-05-13T00:48:22.664Z,100777.84
2018-05-13T00:50:57.975Z,100775.97
2018-05-13T00:53:32.814Z,100771.80
2018-05-13T00:56:07.541Z,100771.79
2018-05-13T00:58:42.890Z,100771.00
2018-05-13T01:01:17.827Z,100770.04
2018-05-13T01:03:52.942Z,100764.02
2018-05-13T01:06:27.690Z,100768.19
2018-05-13T01:09:02.461Z,100769.20
2018-05-13T01:11:37.849Z,100760.50
2018-05-13T01:14:12.845Z,100753.78
2018-05-13T01:16:47.947Z,100752.51
2018-05-13T01:19:22.659Z,100754.66
2018-05-13T01:21:57.831Z,100746.13
2018-05-13T01:24:33.013Z,100750.88
2018-05-13T01:27:07.802Z,100742.27
2018-05-13T01:29:43.011Z,100742.14
2018-05-13T01:32:17.869Z,100742.14
2018-05-13T01:34:53.073Z,100743.46
2018-05-13T01:37:27.902Z,100741.17
2018-05-13T01:40:03.193Z,100741.57
2018-05-13T01:42:38.298Z,100735.37
2018-05-13T01:45:13.758Z,100747.39
2018-05-13T01:47:49.046Z,100740.00
2018-05-13T01:50:24.090Z,100742.75
2018-05-13T01:52:59.122Z,100745.23
2018-05-13T01:55:33.582Z,100740.79
2018-05-13T01:58:08.329Z,100743.20
2018-05-13T02:00:43.212Z,100739.97
2018-05-13T02:03:18.295Z,100745.61
2018-05-13T02:05:53.098Z,100743.09
2018-05-13T02:08:27.949Z,100735.70
2018-05-13T02:11:02.985Z,100744.16
2018-05-13T02:13:37.563Z,100734.97
2018-05-13T02:16:12.897Z,100732.06
2018-05-13T02:18:47.898Z,100743.59
2018-05-13T02:21:23.015Z,100743.22
2018-05-13T02:23:58.266Z,100736.93
2018-05-13T02:26:33.206Z,100736.66
2018-05-13T02:29:08.527Z,100737.91
2018-05-13T02:31:43.266Z,100742.55
2018-05-13T02:34:18.978Z,100734.35
2018-05-13T02:36:53.990Z,100736.84
2018-05-13T02:39:29.098Z,100733.18
2018-05-13T02:42:03.870Z,100730.11
2018-05-13T02:44:39.226Z,100719.89
2018-05-13T02:47:14.285Z,100721.05
2018-05-13T02:49:49.458Z,100717.63
2018-05-13T02:52:24.859Z,100715.84
2018-05-13T02:54:59.315Z,100724.27
2018-05-13T02:57:34.001Z,100716.71
2018-05-13T03:00:08.732Z,100713.99
2018-05-13T03:02:43.686Z,100708.77
2018-05-13T03:05:18.148Z,100709.94
2018-05-13T03:07:53.175Z,100707.25
2018-05-13T03:10:28.310Z,100711.13
2018-05-13T03:13:03.413Z,100705.67
2018-05-13T03:15:38.035Z,100709.69
2018-05-13T03:18:13.023Z,100718.08
2018-05-13T03:20:48.501Z,100719.56
2018-05-13T03:23:24.121Z,100721.16
2018-05-13T03:25:59.424Z,100713.66
2018-05-13T03:28:35.010Z,100712.91
2018-05-13T03:31:10.027Z,100712.83
2018-05-13T03:33:44.710Z,100712.63
2018-05-13T03:36:20.176Z,100711.02
2018-05-13T03:38:55.368Z,100715.69
2018-05-13T03:41:30.335Z,100700.54
2018-05-13T03:44:05.181Z,100707.52
2018-05-13T03:46:41.427Z,100710.52
2018-05-13T03:49:16.296Z,100710.52
2018-05-13T03:51:51.438Z,100715.19
2018-05-13T03:54:26.349Z,100708.56
2018-05-13T03:57:01.493Z,100711.11
2018-05-13T03:59:36.447Z,100712.66
2018-05-13T04:02:11.550Z,100708.16
2018-05-13T04:04:47.046Z,100708.94
2018-05-13T04:07:22.133Z,100706.94
2018-05-13T04:10:07.866Z,100711.02
2018-05-13T04:12:53.802Z,100708.48
2018-05-13T04:15:27.714Z,100711.75
2018-05-13T04:18:02.688Z,100708.14
2018-05-13T04:20:38.252Z,100704.80
2018-05-13T04:23:13.151Z,100708.91
2018-05-13T04:25:48.294Z,100690.05
2018-05-13T04:28:23.169Z,100692.89
2018-05-13T04:30:57.811Z,100693.58
2018-05-13T04:33:32.689Z,100695.93
2018-05-13T04:36:07.370Z,100691.75
2018-05-13T04:38:42.631Z,100688.55
2018-05-13T04:41:17.725Z,100691.92
2018-05-13T04:43:52.698Z,100693.31
2018-05-13T04:46:27.940Z,100692.29
2018-05-13T04:49:03.269Z,100691.15
2018-05-13T04:51:38.514Z,100686.66
2018-05-13T04:54:13.700Z,100692.29
2018-05-13T04:56:49.267Z,100690.86
2018-05-13T04:59:24.300Z,100685.91
2018-05-13T05:01:59.523Z,100680.77
2018-05-13T05:04:34.314Z,100681.73
2018-05-13T05:07:09.246Z,100676.75
2018-05-13T05:09:44.365Z,100671.45
2018-05-13T05:12:19.225Z,100687.83
2018-05-13T05:14:54.553Z,100682.52
2018-05-13T05:17:29.569Z,100678.14
2018-05-13T05:20:04.114Z,100678.16
2018-05-13T05:22:38.834Z,100685.00
2018-05-13T05:25:14.350Z,100690.48
2018-05-13T05:27:49.671Z,100687.02
2018-05-13T05:30:24.707Z,100692.38
2018-05-13T05:32:59.528Z,100695.11
2018-05-13T05:35:34.857Z,100689.66
2018-05-13T05:38:10.429Z,100696.42
2018-05-13T05:40:45.633Z,100694.75
2018-05-13T05:43:20.341Z,100694.52
2018-05-13T05:45:55.917Z,100697.54
2018-05-13T05:48:30.558Z,100691.95
2018-05-13T05:51:06.599Z,100697.63
2018-05-13T05:53:41.823Z,100697.34
2018-05-13T05:56:17.530Z,100692.25
2018-05-13T05:58:52.745Z,100687.59
2018-05-13T06:01:27.592Z,100691.54
2018-05-13T06:04:02.425Z,100687.79
2018-05-13T06:06:37.578Z,100697.96
2018-05-13T06:09:12.562Z,100694.16
2018-05-13T06:11:47.042Z,100693.99
2018-05-13T06:14:22.549Z,100692.26
2018-05-13T06:16:57.714Z,100681.66
2018-05-13T06:19:32.269Z,100687.52
2018-05-13T06:22:07.468Z,100683.75
2018-05-13T06:24:42.824Z,100676.89
2018-05-13T06:27:17.609Z,100678.36
2018-05-13T06:29:52.596Z,100679.02
2018-05-13T06:32:27.198Z,100677.28
2018-05-13T06:35:01.669Z,100676.97
2018-05-13T06:37:37.074Z,100678.92
2018-05-13T06:40:11.910Z,100683.12
2018-05-13T06:42:47.763Z,100683.49
2018-05-13T06:45:22.737Z,100682.55
2018-05-13T06:47:58.565Z,100687.28
2018-05-13T06:50:33.969Z,100688.75
2018-05-13T06:53:09.280Z,100696.43
2018-05-13T06:55:44.708Z,100694.59
2018-05-13T06:58:20.530Z,100694.72
2018-05-13T07:00:55.446Z,100692.80
2018-05-13T07:03:30.398Z,100692.26
2018-05-13T07:06:04.855Z,100698.94
2018-05-13T07:08:39.973Z,100695.11
2018-05-13T07:11:14.914Z,100688.90
2018-05-13T07:13:50.121Z,100693.01
2018-05-13T07:16:25.722Z,100690.77
2018-05-13T07:19:00.539Z,100693.26
2018-05-13T07:21:35.956Z,100697.19
2018-05-13T07:24:11.178Z,100697.82
2018-05-13T07:26:47.793Z,100692.34
2018-05-13T07:29:22.559Z,100690.44
2018-05-13T07:31:57.742Z,100691.41
2018-05-13T07:34:32.682Z,100691.10
2018-05-13T07:37:07.925Z,100695.59
2018-05-13T07:39:43.413Z,100693.42
2018-05-13T07:42:18.134Z,100691.26
2018-05-13T07:44:53.238Z,100692.14
2018-05-13T07:47:28.734Z,100695.25
2018-05-13T07:50:03.723Z,100691.00
2018-05-13T07:52:38.620Z,100696.71
2018-05-13T07:55:13.710Z,100694.66
2018-05-13T07:57:49.413Z,100683.49
2018-05-13T08:00:24.531Z,100681.03
2018-05-13T08:02:59.769Z,100683.50
2018-05-13T08:05:35.125Z,100672.73
2018-05-13T08:08:09.500Z,100680.51
2018-05-13T08:10:45.100Z,100682.13
2018-05-13T08:13:20.638Z,100677.11
2018-05-13T08:15:55.211Z,100683.08
2018-05-13T08:18:30.678Z,100679.72
2018-05-13T08:21:05.687Z,100674.87
2018-05-13T08:23:42.042Z,100671.00
2018-05-13T08:26:16.518Z,100665.38
2018-05-13T08:28:51.395Z,100670.38
2018-05-13T08:31:26.690Z,100674.14
2018-05-13T08:34:01.726Z,100675.75
2018-05-13T08:36:36.844Z,100681.62
2018-05-13T08:39:11.848Z,100677.58
2018-05-13T08:41:47.185Z,100664.27
2018-05-13T08:44:22.170Z,100670.55
2018-05-13T08:46:57.067Z,100664.20
2018-05-13T08:49:32.393Z,100666.72
2018-05-13T08:52:07.813Z,100669.07
2018-05-13T08:54:42.918Z,100670.83
2018-05-13T08:57:17.909Z,100658.13
2018-05-13T08:59:54.046Z,100661.12
2018-05-13T09:02:29.158Z,100660.05
2018-05-13T09:05:04.139Z,100666.53
2018-05-13T09:07:38.910Z,100655.13
2018-05-13T09:10:13.902Z,100657.19
2018-05-13T09:12:49.231Z,100658.85
2018-05-13T09:15:23.902Z,100640.22
2018-05-13T09:17:58.625Z,100640.41
2018-05-13T09:20:33.682Z,100630.54
2018-05-13T09:23:08.729Z,100627.30
2018-05-13T09:25:43.618Z,100631.95
2018-05-13T09:28:18.235Z,100619.78
2018-05-13T09:30:53.494Z,100625.12
2018-05-13T09:33:28.980Z,100616.80
2018-05-13T09:36:03.984Z,100616.25
2018-05-13T09:38:39.015Z,100624.58
2018-05-13T09:41:13.977Z,100623.27
2018-05-13T09:43:49.369Z,100616.07
2018-05-13T09:46:24.214Z,100614.86
2018-05-13T09:48:58.917Z,100619.72
2018-05-13T09:51:34.198Z,100620.55
2018-05-13T09:54:09.199Z,100617.52
2018-05-13T09:56:44.198Z,100607.33
2018-05-13T09:59:19.202Z,100611.84
2018-05-13T10:01:54.096Z,100619.84
2018-05-13T10:04:29.041Z,100619.84
2018-05-13T10:07:04.065Z,100622.45
2018-05-13T10:09:39.576Z,100609.38
2018-05-13T10:12:14.945Z,100610.37
2018-05-13T10:14:50.272Z,100602.34
2018-05-13T10:17:25.364Z,100596.10
2018-05-13T10:19:59.937Z,100601.38
2018-05-13T10:22:35.366Z,100595.99
2018-05-13T10:25:10.378Z,100597.39
2018-05-13T10:27:45.206Z,100580.87
2018-05-13T10:30:20.965Z,100589.31
2018-05-13T10:32:56.082Z,100577.46
2018-05-13T10:35:31.429Z,100581.98
2018-05-13T10:38:05.714Z,100578.67
2018-05-13T10:40:40.502Z,100578.17
2018-05-13T10:43:15.229Z,100579.46
2018-05-13T10:45:50.337Z,100569.86
2018-05-13T10:48:25.180Z,100565.52
2018-05-13T10:51:00.430Z,100565.59
2018-05-13T10:53:35.591Z,100568.30
2018-05-13T10:56:10.506Z,100560.02
2018-05-13T10:58:46.318Z,100558.54
2018-05-13T11:01:21.166Z,100556.33
2018-05-13T11:03:56.402Z,100547.62
2018-05-13T11:06:32.143Z,100552.41
2018-05-13T11:09:06.338Z,100536.88
2018-05-13T11:11:42.506Z,100530.58
2018-05-13T11:14:17.362Z,100534.48
2018-05-13T11:16:52.510Z,100522.28
2018-05-13T11:19:27.282Z,100523.89
2018-05-13T11:22:02.272Z,100525.63
2018-05-13T11:24:37.261Z,100525.55
2018-05-13T11:27:11.754Z,100520.92
2018-05-13T11:29:47.416Z,100530.30
2018-05-13T11:32:22.454Z,100519.81
2018-05-13T11:34:57.682Z,100521.24
2018-05-13T11:37:33.232Z,100519.33
2018-05-13T11:40:08.434Z,100528.63
2018-05-13T11:42:43.490Z,100507.81
2018-05-13T11:45:19.270Z,100511.97
2018-05-13T11:47:54.523Z,100508.91
2018-05-13T11:50:29.522Z,100508.84
2018-05-13T11:53:04.249Z,100506.58
2018-05-13T11:55:39.281Z,100497.90
2018-05-13T11:58:14.269Z,100492.73
2018-05-13T12:00:49.705Z,100490.35
2018-05-13T12:03:24.367Z,100489.92
2018-05-13T12:05:58.822Z,100486.87
2018-05-13T12:08:33.750Z,100497.36
2018-05-13T12:11:08.776Z,100494.14
2018-05-13T12:13:43.908Z,100483.94
2018-05-13T12:16:19.295Z,100483.30
2018-05-13T12:18:53.919Z,100478.35
2018-05-13T12:21:28.804Z,100480.24
2018-05-13T12:24:04.070Z,100473.55
2018-05-13T12:26:39.614Z,100471.10
2018-05-13T12:29:14.965Z,100467.39
2018-05-13T12:31:49.898Z,100470.23
2018-05-13T12:34:25.290Z,100458.43
2018-05-13T12:37:00.958Z,100456.44
2018-05-13T12:39:35.814Z,100453.51
2018-05-13T12:42:11.068Z,100452.50
2018-05-13T12:44:46.494Z,100453.38
2018-05-13T12:47:21.803Z,100447.48
2018-05-13T12:49:57.275Z,100437.20
2018-05-13T12:52:32.366Z,100430.66
2018-05-13T12:55:08.054Z,100428.04
2018-05-13T12:57:43.918Z,100428.44
2018-05-13T13:00:17.998Z,100431.15
2018-05-13T13:02:53.442Z,100431.27
2018-05-13T13:05:28.607Z,100431.47
2018-05-13T13:08:04.114Z,100438.05
2018-05-13T13:10:39.062Z,100427.66
2018-05-13T13:13:14.272Z,100418.79
2018-05-13T13:15:49.138Z,100426.38
2018-05-13T13:18:23.921Z,100427.25
2018-05-13T13:20:58.698Z,100426.14
2018-05-13T13:23:33.365Z,100424.89
2018-05-13T13:26:08.919Z,100425.94
2018-05-13T13:28:44.041Z,100411.84
2018-05-13T13:31:19.091Z,100419.43
2018-05-13T13:33:54.019Z,100417.66
2018-05-13T13:36:29.079Z,100405.28
2018-05-13T13:39:03.522Z,100407.41
2018-05-13T13:41:38.301Z,100399.20
2018-05-13T13:44:13.297Z,100394.31
2018-05-13T13:46:48.075Z,100394.22
2018-05-13T13:49:23.205Z,100397.91
2018-05-13T13:51:59.288Z,100401.84
2018-05-13T13:54:34.613Z,100398.20
2018-05-13T13:57:09.259Z,100398.27
2018-05-13T13:59:44.061Z,100395.66
2018-05-13T14:02:19.005Z,100387.94
2018-05-13T14:04:54.375Z,100383.66
2018-05-13T14:07:29.402Z,100387.38
2018-05-13T14:10:04.007Z,100379.70
2018-05-13T14:12:38.523Z,100372.66
2018-05-13T14:15:13.366Z,100370.16
2018-05-13T14:17:48.609Z,100371.05
2018-05-13T14:20:23.779Z,100380.44
2018-05-13T14:22:59.370Z,100375.18
2018-05-13T14:25:34.632Z,100374.66
2018-05-13T14:28:09.550Z,100370.84
2018-05-13T14:30:44.941Z,100367.54
2018-05-13T14:33:19.534Z,100367.33
2018-05-13T14:35:55.150Z,100356.89
2018-05-13T14:38:29.742Z,100363.18
2018-05-13T14:41:04.531Z,100359.53
2018-05-13T14:43:39.242Z,100373.11
2018-05-13T14:46:14.463Z,100374.97
2018-05-13T14:48:50.068Z,100384.98
2018-05-13T14:51:25.080Z,100392.54
2018-05-13T14:53:59.683Z,100391.23
2018-05-13T14:56:34.891Z,100400.15
2018-05-13T14:59:11.248Z,100402.84
2018-05-13T15:01:45.861Z,100397.26
2018-05-13T15:04:20.620Z,100400.03
2018-05-13T15:06:55.846Z,100407.94
2018-05-13T15:09:31.293Z,100413.16
2018-05-13T15:12:07.080Z,100406.52
2018-05-13T15:14:42.348Z,100402.38
2018-05-13T15:17:17.383Z,100400.93
2018-05-13T15:19:51.836Z,100400.97
2018-05-13T15:22:32.707Z,100391.66
2018-05-13T15:25:07.822Z,100392.18
2018-05-13T15:27:42.669Z,100395.02
2018-05-13T15:30:18.232Z,100391.89
2018-05-13T15:32:53.540Z,100397.95
2018-05-13T15:35:28.382Z,100406.89
2018-05-13T15:38:03.383Z,100411.73
2018-05-13T15:40:38.552Z,100414.53
2018-05-13T15:43:13.929Z,100440.58
2018-05-13T15:45:49.313Z,100441.77
2018-05-13T15:48:24.385Z,100440.58
2018-05-13T15:50:59.794Z,100443.31
2018-05-13T15:53:34.474Z,100453.63
2018-05-13T15:56:09.429Z,100456.66
2018-05-13T15:58:44.522Z,100460.69
2018-05-13T16:01:19.500Z,100456.81
2018-05-13T16:03:54.726Z,100462.95
2018-05-13T16:06:29.320Z,100463.73
2018-05-13T16:09:03.338Z,100467.37
2018-05-13T16:11:38.542Z,100470.00
2018-05-13T16:14:14.386Z,100478.52
2018-05-13T16:16:49.589Z,100476.97
2018-05-13T16:19:24.440Z,100484.88
2018-05-13T16:21:59.854Z,100485.94
2018-05-13T16:24:34.449Z,100475.06
2018-05-13T16:27:09.387Z,100469.62
2018-05-13T16:29:44.590Z,100478.39
2018-05-13T16:32:19.571Z,100494.34
2018-05-13T16:34:55.006Z,100496.64
2018-05-13T16:37:30.385Z,100505.26
2018-05-13T16:40:05.093Z,100507.77
2018-05-13T16:42:39.826Z,100507.56
2018-05-13T16:45:14.799Z,100515.75
2018-05-13T16:47:49.372Z,100518.17
2018-05-13T16:50:24.381Z,100512.14
2018-05-13T16:52:59.989Z,100521.73
2018-05-13T16:55:35.268Z,100520.55
2018-05-13T16:58:10.477Z,100536.02
2018-05-13T17:00:45.517Z,100531.38
2018-05-13T17:03:20.089Z,100545.09
2018-05-13T17:05:55.858Z,100547.69
2018-05-13T17:08:30.431Z,100560.48
2018-05-13T17:11:05.661Z,100571.38
2018-05-13T17:13:41.274Z,100582.44
2018-05-13T17:16:16.936Z,100582.59
2018-05-13T17:18:51.749Z,100592.98
2018-05-13T17:21:27.126Z,100620.81
2018-05-13T17:24:02.160Z,100640.65
2018-05-13T17:26:37.169Z,100643.03
2018-05-13T17:29:12.178Z,100639.35
2018-05-13T17:31:46.935Z,100629.30
2018-05-13T17:34:21.782Z,100615.55
2018-05-13T17:36:56.258Z,100608.97
2018-05-13T17:39:31.298Z,100611.91
2018-05-13T17:42:06.950Z,100617.09
2018-05-13T17:44:41.969Z,100616.69
2018-05-13T17:47:16.644Z,100596.17
2018-05-13T17:49:51.486Z,100581.17
2018-05-13T17:52:26.362Z,100578.75
2018-05-13T17:55:01.930Z,100577.97
2018-05-13T17:57:36.924Z,100568.36
2018-05-13T18:00:12.288Z,100559.11
2018-05-13T18:02:46.855Z,100569.74
2018-05-13T18:05:22.003Z,100564.78
2018-05-13T18:07:57.198Z,100557.64
2018-05-13T18:10:32.552Z,100561.69
2018-05-13T18:13:08.100Z,100562.99
2018-05-13T18:15:43.562Z,100562.66
2018-05-13T18:18:18.956Z,100561.56
2018-05-13T18:20:53.944Z,100576.61
2018-05-13T18:23:28.894Z,100574.91
2018-05-13T18:26:04.147Z,100590.41
2018-05-13T18:28:39.041Z,100571.72
2018-05-13T18:31:14.183Z,100574.42
2018-05-13T18:33:49.174Z,100584.70
2018-05-13T18:36:23.814Z,100619.05
2018-05-13T18:39:00.431Z,100633.03
2018-05-13T18:41:35.058Z,100658.58
2018-05-13T18:44:10.233Z,100672.45
2018-05-13T18:46:45.682Z,100692.78
2018-05-13T18:49:21.023Z,100686.03
2018-05-13T18:51:56.077Z,100672.31
2018-05-13T18:54:31.093Z,100661.34
2018-05-13T18:57:06.171Z,100647.63
2018-05-13T18:59:41.296Z,100652.29
2018-05-13T19:02:16.394Z,100641.97
2018-05-13T19:04:51.112Z,100639.23
2018-05-13T19:07:26.097Z,100633.72
2018-05-13T19:10:01.390Z,100635.92
2018-05-13T19:12:36.107Z,100636.90
2018-05-13T19:15:11.237Z,100639.27
2018-05-13T19:17:46.422Z,100652.59
2018-05-13T19:20:21.102Z,100646.14
2018-05-13T19:22:56.086Z,100648.78
2018-05-13T19:25:31.081Z,100656.98
2018-05-13T19:28:06.074Z,100659.73
2018-05-13T19:30:41.026Z,100655.66
2018-05-13T19:33:16.361Z,100664.54
2018-05-13T19:35:51.315Z,100676.58
2018-05-13T19:38:26.257Z,100671.73
2018-05-13T19:41:02.182Z,100679.67
2018-05-13T19:43:37.118Z,100681.66
2018-05-13T19:46:12.322Z,100691.81
2018-05-13T19:48:47.153Z,100694.05
2018-05-13T19:51:22.107Z,100696.74
2018-05-13T19:53:57.302Z,100707.81
2018-05-13T19:56:32.188Z,100707.78
2018-05-13T19:59:07.330Z,100700.98
2018-05-13T20:01:42.751Z,100707.41
2018-05-13T20:04:18.170Z,100705.65
2018-05-13T20:06:53.184Z,100707.37
2018-05-13T20:09:28.198Z,100704.30
2018-05-13T20:12:03.453Z,100707.70
2018-05-13T20:14:38.302Z,100708.21
2018-05-13T20:17:13.399Z,100704.46
2018-05-13T20:19:48.284Z,100715.80
2018-05-13T20:22:23.141Z,100707.97
2018-05-13T20:24:58.262Z,100710.52
2018-05-13T20:27:33.211Z,100711.52
2018-05-13T20:30:09.123Z,100713.91
2018-05-13T20:32:44.279Z,100714.75
2018-05-13T20:35:19.457Z,100717.73
2018-05-13T20:37:54.275Z,100716.02
2018-05-13T20:40:29.437Z,100721.91
2018-05-13T20:43:04.214Z,100723.95
2018-05-13T20:45:39.434Z,100714.49
2018-05-13T20:48:14.534Z,100715.95
2018-05-13T20:50:49.770Z,100723.03
2018-05-13T20:53:24.817Z,100716.86
2018-05-13T20:56:00.566Z,100714.48
2018-05-13T20:58:35.306Z,100723.20
2018-05-13T21:01:10.600Z,100720.98
2018-05-13T21:03:45.388Z,100712.73
2018-05-13T21:06:20.662Z,100713.51
2018-05-13T21:08:55.470Z,100726.81
2018-05-13T21:11:30.518Z,100726.46
2018-05-13T21:14:04.931Z,100725.52
2018-05-13T21:16:39.860Z,100726.46
2018-05-13T21:19:15.503Z,100724.76
2018-05-13T21:21:50.708Z,100721.10
2018-05-13T21:24:26.403Z,100719.72
2018-05-13T21:27:01.675Z,100720.53
2018-05-13T21:29:36.505Z,100715.08
2018-05-13T21:32:12.040Z,100726.06
2018-05-13T21:34:46.902Z,100723.84
2018-05-13T21:37:21.802Z,100715.55
2018-05-13T21:39:57.466Z,100717.23
2018-05-13T21:42:32.422Z,100719.94
2018-05-13T21:45:07.409Z,100724.97
2018-05-13T21:47:42.457Z,100717.20
2018-05-13T21:50:17.558Z,100722.30
2018-05-13T21:52:52.557Z,100720.77
2018-05-13T21:55:27.598Z,100714.70
2018-05-13T21:58:02.513Z,100710.94
2018-05-13T22:00:37.187Z,100709.63
2018-05-13T22:03:12.777Z,100703.57
2018-05-13T22:05:47.601Z,100706.56
2018-05-13T22:08:22.616Z,100706.12
2018-05-13T22:10:57.091Z,100703.00
2018-05-13T22:13:31.774Z,100702.32
2018-05-13T22:16:07.134Z,100703.77
2018-05-13T22:18:41.666Z,100709.80
2018-05-13T22:21:16.963Z,100702.64
2018-05-13T22:23:52.556Z,100709.02
2018-05-13T22:26:27.742Z,100703.36
2018-05-13T22:29:02.993Z,100704.77
2018-05-13T22:31:37.586Z,100697.08
2018-05-13T22:34:12.888Z,100698.00
2018-05-13T22:36:48.021Z,100696.29
2018-05-13T22:39:23.034Z,100694.14
2018-05-13T22:41:58.043Z,100699.54
2018-05-13T22:44:33.439Z,100696.29
2018-05-13T22:47:08.542Z,100697.73
2018-05-13T22:49:43.597Z,100697.30
2018-05-13T22:52:18.820Z,100698.97
2018-05-13T22:54:53.990Z,100700.19
2018-05-13T22:57:28.835Z,100691.49
2018-05-13T23:00:03.736Z,100696.84
2018-05-13T23:02:38.755Z,100693.42
2018-05-13T23:05:13.546Z,100692.31
2018-05-13T23:07:48.675Z,100684.81
2018-05-13T23:10:23.571Z,100686.91
2018-05-13T23:12:58.819Z,100683.48
2018-05-13T23:15:33.808Z,100680.77
2018-05-13T23:18:08.991Z,100678.44
2018-05-13T23:20:44.199Z,100673.34
2018-05-13T23:23:19.630Z,100672.86
2018-05-13T23:25:54.662Z,100678.34
2018-05-13T23:28:30.192Z,100682.80
2018-05-13T23:31:05.415Z,100683.41
2018-05-13T23:33:39.841Z,100675.47
2018-05-13T23:36:15.033Z,100678.66
2018-05-13T23:38:49.815Z,100681.94
2018-05-13T23:41:24.724Z,100676.17
2018-05-13T23:44:01.050Z,100682.61
2018-05-13T23:46:36.157Z,100677.64
2018-05-13T23:49:10.998Z,100676.75
2018-05-13T23:51:45.753Z,100678.57
2018-05-13T23:54:21.138Z,100677.59
2018-05-13T23:56:56.731Z,100677.67
2018-05-13T23:59:31.235Z,100676.41
